sensor_id;sensor_type;location;lat;lon;timestamp;P1;durP1;ratioP1;P2;durP2;ratioP2
3321;SDS011;1673;51.388;7.086;2023-07-28T00:01:11;9.60;;;3.63;;
3321;SDS011;1673;51.388;7.086;2023-07-28T00:03:44;7.50;;;3.30;;
3321;SDS011;1673;51.388;7.086;2023-07-28T00:06:14;7.72;;;3.85;;
3321;SDS011;1673;51.388;7.086;2023-07-28T00:08:44;7.15;;;3.60;;
3321;SDS011;1673;51.388;7.086;2023-07-28T00:11:14;8.23;;;3.67;;
3321;SDS011;1673;51.388;7.086;2023-07-28T00:13:44;9.18;;;3.58;;
3321;SDS011;1673;51.388;7.086;2023-07-28T00:16:14;8.87;;;3.60;;
3321;SDS011;1673;51.388;7.086;2023-07-28T00:18:48;7.20;;;3.00;;
3321;SDS011;1673;51.388;7.086;2023-07-28T00:21:18;10.05;;;3.50;;
3321;SDS011;1673;51.388;7.086;2023-07-28T00:23:48;9.63;;;3.40;;
3321;SDS011;1673;51.388;7.086;2023-07-28T00:26:18;9.60;;;3.43;;
3321;SDS011;1673;51.388;7.086;2023-07-28T00:28:48;9.77;;;4.10;;
3321;SDS011;1673;51.388;7.086;2023-07-28T00:31:18;7.18;;;3.20;;
3321;SDS011;1673;51.388;7.086;2023-07-28T00:33:50;9.20;;;4.10;;
3321;SDS011;1673;51.388;7.086;2023-07-28T00:36:22;8.05;;;3.45;;
3321;SDS011;1673;51.388;7.086;2023-07-28T00:38:52;7.38;;;3.50;;
3321;SDS011;1673;51.388;7.086;2023-07-28T00:41:22;7.45;;;3.60;;
3321;SDS011;1673;51.388;7.086;2023-07-28T00:43:53;10.95;;;3.60;;
3321;SDS011;1673;51.388;7.086;2023-07-28T00:46:23;12.75;;;3.55;;
3321;SDS011;1673;51.388;7.086;2023-07-28T00:48:56;8.30;;;3.53;;
3321;SDS011;1673;51.388;7.086;2023-07-28T00:51:26;9.20;;;3.33;;
3321;SDS011;1673;51.388;7.086;2023-07-28T00:53:57;7.00;;;3.00;;
3321;SDS011;1673;51.388;7.086;2023-07-28T00:56:28;7.78;;;3.20;;
3321;SDS011;1673;51.388;7.086;2023-07-28T00:59:00;7.47;;;3.08;;
3321;SDS011;1673;51.388;7.086;2023-07-28T01:01:30;6.70;;;3.50;;
3321;SDS011;1673;51.388;7.086;2023-07-28T01:04:03;8.30;;;3.60;;
3321;SDS011;1673;51.388;7.086;2023-07-28T01:06:35;7.40;;;3.50;;
3321;SDS011;1673;51.388;7.086;2023-07-28T01:09:16;9.02;;;3.90;;
3321;SDS011;1673;51.388;7.086;2023-07-28T01:11:55;9.65;;;3.90;;
3321;SDS011;1673;51.388;7.086;2023-07-28T01:14:25;7.32;;;3.90;;
3321;SDS011;1673;51.388;7.086;2023-07-28T01:16:55;9.73;;;4.20;;
3321;SDS011;1673;51.388;7.086;2023-07-28T01:19:28;7.70;;;3.80;;
3321;SDS011;1673;51.388;7.086;2023-07-28T01:22:03;7.05;;;3.63;;
3321;SDS011;1673;51.388;7.086;2023-07-28T01:24:51;8.30;;;4.10;;
3321;SDS011;1673;51.388;7.086;2023-07-28T01:27:27;10.43;;;4.10;;
3321;SDS011;1673;51.388;7.086;2023-07-28T01:29:58;7.37;;;3.97;;
3321;SDS011;1673;51.388;7.086;2023-07-28T01:32:31;7.20;;;3.50;;
3321;SDS011;1673;51.388;7.086;2023-07-28T01:35:07;5.80;;;3.10;;
3321;SDS011;1673;51.388;7.086;2023-07-28T01:37:38;7.93;;;3.20;;
3321;SDS011;1673;51.388;7.086;2023-07-28T01:40:09;8.73;;;3.08;;
3321;SDS011;1673;51.388;7.086;2023-07-28T01:42:42;7.20;;;3.13;;
3321;SDS011;1673;51.388;7.086;2023-07-28T01:45:12;5.88;;;2.80;;
3321;SDS011;1673;51.388;7.086;2023-07-28T01:47:42;6.57;;;2.70;;
3321;SDS011;1673;51.388;7.086;2023-07-28T01:50:12;6.15;;;2.90;;
3321;SDS011;1673;51.388;7.086;2023-07-28T01:52:42;9.02;;;2.80;;
3321;SDS011;1673;51.388;7.086;2023-07-28T01:55:12;6.80;;;2.88;;
3321;SDS011;1673;51.388;7.086;2023-07-28T01:57:49;7.13;;;3.10;;
3321;SDS011;1673;51.388;7.086;2023-07-28T02:00:20;5.40;;;2.70;;
3321;SDS011;1673;51.388;7.086;2023-07-28T02:02:51;7.17;;;2.80;;
3321;SDS011;1673;51.388;7.086;2023-07-28T02:05:22;6.20;;;2.70;;
3321;SDS011;1673;51.388;7.086;2023-07-28T02:07:52;5.40;;;2.20;;
3321;SDS011;1673;51.388;7.086;2023-07-28T02:10:22;5.30;;;2.50;;
3321;SDS011;1673;51.388;7.086;2023-07-28T02:12:55;4.93;;;2.60;;
3321;SDS011;1673;51.388;7.086;2023-07-28T02:15:25;4.38;;;2.28;;
3321;SDS011;1673;51.388;7.086;2023-07-28T02:17:55;8.07;;;2.40;;
3321;SDS011;1673;51.388;7.086;2023-07-28T02:20:25;5.00;;;2.25;;
3321;SDS011;1673;51.388;7.086;2023-07-28T02:22:55;5.45;;;2.10;;
3321;SDS011;1673;51.388;7.086;2023-07-28T02:25:25;4.90;;;1.80;;
3321;SDS011;1673;51.388;7.086;2023-07-28T02:27:58;5.07;;;2.30;;
3321;SDS011;1673;51.388;7.086;2023-07-28T02:30:28;5.67;;;1.80;;
3321;SDS011;1673;51.388;7.086;2023-07-28T02:32:58;4.28;;;1.90;;
3321;SDS011;1673;51.388;7.086;2023-07-28T02:35:28;4.85;;;1.70;;
3321;SDS011;1673;51.388;7.086;2023-07-28T02:37:58;4.38;;;1.98;;
3321;SDS011;1673;51.388;7.086;2023-07-28T02:40:29;4.50;;;1.75;;
3321;SDS011;1673;51.388;7.086;2023-07-28T02:43:01;5.83;;;2.00;;
3321;SDS011;1673;51.388;7.086;2023-07-28T02:45:39;4.55;;;1.92;;
3321;SDS011;1673;51.388;7.086;2023-07-28T02:48:12;5.23;;;1.73;;
3321;SDS011;1673;51.388;7.086;2023-07-28T02:50:45;4.50;;;1.80;;
3321;SDS011;1673;51.388;7.086;2023-07-28T02:53:15;7.30;;;1.70;;
3321;SDS011;1673;51.388;7.086;2023-07-28T02:55:46;5.88;;;1.70;;
3321;SDS011;1673;51.388;7.086;2023-07-28T02:58:19;5.27;;;1.60;;
3321;SDS011;1673;51.388;7.086;2023-07-28T03:00:51;5.40;;;1.30;;
3321;SDS011;1673;51.388;7.086;2023-07-28T03:03:29;4.10;;;1.45;;
3321;SDS011;1673;51.388;7.086;2023-07-28T03:05:59;3.60;;;1.30;;
3321;SDS011;1673;51.388;7.086;2023-07-28T03:08:30;5.80;;;2.00;;
3321;SDS011;1673;51.388;7.086;2023-07-28T03:11:20;3.83;;;1.40;;
3321;SDS011;1673;51.388;7.086;2023-07-28T03:13:53;4.90;;;1.53;;
3321;SDS011;1673;51.388;7.086;2023-07-28T03:16:24;5.03;;;1.73;;
3321;SDS011;1673;51.388;7.086;2023-07-28T03:18:54;6.10;;;1.70;;
3321;SDS011;1673;51.388;7.086;2023-07-28T03:21:24;5.50;;;1.80;;
3321;SDS011;1673;51.388;7.086;2023-07-28T03:23:54;3.60;;;1.40;;
3321;SDS011;1673;51.388;7.086;2023-07-28T03:26:25;5.50;;;1.70;;
3321;SDS011;1673;51.388;7.086;2023-07-28T03:28:58;3.70;;;1.45;;
3321;SDS011;1673;51.388;7.086;2023-07-28T03:31:29;4.85;;;1.55;;
3321;SDS011;1673;51.388;7.086;2023-07-28T03:34:03;3.78;;;1.40;;
3321;SDS011;1673;51.388;7.086;2023-07-28T03:36:34;3.97;;;1.50;;
3321;SDS011;1673;51.388;7.086;2023-07-28T03:39:09;4.20;;;1.75;;
3321;SDS011;1673;51.388;7.086;2023-07-28T03:41:40;3.72;;;1.30;;
3321;SDS011;1673;51.388;7.086;2023-07-28T03:44:12;5.47;;;1.50;;
3321;SDS011;1673;51.388;7.086;2023-07-28T03:46:43;6.45;;;1.50;;
3321;SDS011;1673;51.388;7.086;2023-07-28T03:49:13;3.55;;;1.30;;
3321;SDS011;1673;51.388;7.086;2023-07-28T03:51:44;4.80;;;1.38;;
3321;SDS011;1673;51.388;7.086;2023-07-28T03:54:14;4.03;;;1.40;;
3321;SDS011;1673;51.388;7.086;2023-07-28T03:56:48;4.30;;;1.60;;
3321;SDS011;1673;51.388;7.086;2023-07-28T03:59:22;3.85;;;1.20;;
3321;SDS011;1673;51.388;7.086;2023-07-28T04:01:52;5.43;;;1.48;;
3321;SDS011;1673;51.388;7.086;2023-07-28T04:04:23;4.88;;;1.35;;
3321;SDS011;1673;51.388;7.086;2023-07-28T04:06:52;3.38;;;1.02;;
3321;SDS011;1673;51.388;7.086;2023-07-28T04:09:23;4.57;;;1.20;;
3321;SDS011;1673;51.388;7.086;2023-07-28T04:11:53;4.00;;;1.40;;
3321;SDS011;1673;51.388;7.086;2023-07-28T04:14:26;3.58;;;1.10;;
3321;SDS011;1673;51.388;7.086;2023-07-28T04:16:56;4.80;;;1.20;;
3321;SDS011;1673;51.388;7.086;2023-07-28T04:19:28;5.53;;;1.43;;
3321;SDS011;1673;51.388;7.086;2023-07-28T04:21:59;3.47;;;1.20;;
3321;SDS011;1673;51.388;7.086;2023-07-28T04:24:31;7.20;;;1.20;;
3321;SDS011;1673;51.388;7.086;2023-07-28T04:27:01;3.70;;;1.30;;
3321;SDS011;1673;51.388;7.086;2023-07-28T04:29:34;4.35;;;1.40;;
3321;SDS011;1673;51.388;7.086;2023-07-28T04:32:07;4.55;;;1.35;;
3321;SDS011;1673;51.388;7.086;2023-07-28T04:34:37;5.18;;;1.65;;
3321;SDS011;1673;51.388;7.086;2023-07-28T04:37:15;3.88;;;1.58;;
3321;SDS011;1673;51.388;7.086;2023-07-28T04:39:55;3.75;;;1.40;;
3321;SDS011;1673;51.388;7.086;2023-07-28T04:42:31;3.58;;;1.40;;
3321;SDS011;1673;51.388;7.086;2023-07-28T04:45:04;4.55;;;1.60;;
3321;SDS011;1673;51.388;7.086;2023-07-28T04:47:35;4.10;;;1.52;;
3321;SDS011;1673;51.388;7.086;2023-07-28T04:50:08;5.00;;;1.70;;
3321;SDS011;1673;51.388;7.086;2023-07-28T04:52:58;4.18;;;1.55;;
3321;SDS011;1673;51.388;7.086;2023-07-28T04:55:40;5.50;;;1.80;;
3321;SDS011;1673;51.388;7.086;2023-07-28T04:58:14;5.80;;;1.60;;
3321;SDS011;1673;51.388;7.086;2023-07-28T05:00:50;5.60;;;1.65;;
3321;SDS011;1673;51.388;7.086;2023-07-28T05:03:21;6.60;;;2.28;;
3321;SDS011;1673;51.388;7.086;2023-07-28T05:05:56;4.33;;;1.63;;
3321;SDS011;1673;51.388;7.086;2023-07-28T05:08:26;3.60;;;1.58;;
3321;SDS011;1673;51.388;7.086;2023-07-28T05:10:56;4.47;;;1.60;;
3321;SDS011;1673;51.388;7.086;2023-07-28T05:13:30;3.90;;;1.38;;
3321;SDS011;1673;51.388;7.086;2023-07-28T05:16:03;5.35;;;1.55;;
3321;SDS011;1673;51.388;7.086;2023-07-28T05:18:52;3.95;;;1.50;;
3321;SDS011;1673;51.388;7.086;2023-07-28T05:21:42;4.00;;;1.60;;
3321;SDS011;1673;51.388;7.086;2023-07-28T05:24:15;5.93;;;1.30;;
3321;SDS011;1673;51.388;7.086;2023-07-28T05:26:45;4.90;;;1.40;;
3321;SDS011;1673;51.388;7.086;2023-07-28T05:29:15;4.10;;;1.40;;
3321;SDS011;1673;51.388;7.086;2023-07-28T05:31:49;4.60;;;1.50;;
3321;SDS011;1673;51.388;7.086;2023-07-28T05:34:29;4.63;;;1.45;;
3321;SDS011;1673;51.388;7.086;2023-07-28T05:36:59;4.78;;;1.70;;
3321;SDS011;1673;51.388;7.086;2023-07-28T05:39:32;5.32;;;1.92;;
3321;SDS011;1673;51.388;7.086;2023-07-28T05:42:05;7.55;;;2.20;;
3321;SDS011;1673;51.388;7.086;2023-07-28T05:44:36;5.63;;;2.15;;
3321;SDS011;1673;51.388;7.086;2023-07-28T05:47:08;5.03;;;1.80;;
3321;SDS011;1673;51.388;7.086;2023-07-28T05:49:39;4.97;;;2.10;;
3321;SDS011;1673;51.388;7.086;2023-07-28T05:52:09;5.10;;;2.00;;
3321;SDS011;1673;51.388;7.086;2023-07-28T05:54:39;4.88;;;2.03;;
3321;SDS011;1673;51.388;7.086;2023-07-28T05:57:09;7.03;;;1.80;;
3321;SDS011;1673;51.388;7.086;2023-07-28T05:59:39;5.18;;;2.05;;
3321;SDS011;1673;51.388;7.086;2023-07-28T06:02:11;5.13;;;1.60;;
3321;SDS011;1673;51.388;7.086;2023-07-28T06:04:46;6.20;;;2.00;;
3321;SDS011;1673;51.388;7.086;2023-07-28T06:07:16;4.50;;;1.90;;
3321;SDS011;1673;51.388;7.086;2023-07-28T06:09:46;5.78;;;2.00;;
3321;SDS011;1673;51.388;7.086;2023-07-28T06:12:17;8.10;;;2.33;;
3321;SDS011;1673;51.388;7.086;2023-07-28T06:14:47;6.38;;;2.20;;
3321;SDS011;1673;51.388;7.086;2023-07-28T06:17:20;8.73;;;2.83;;
3321;SDS011;1673;51.388;7.086;2023-07-28T06:19:50;6.00;;;2.78;;
3321;SDS011;1673;51.388;7.086;2023-07-28T06:22:20;6.55;;;2.30;;
3321;SDS011;1673;51.388;7.086;2023-07-28T06:24:51;10.35;;;2.60;;
3321;SDS011;1673;51.388;7.086;2023-07-28T06:27:21;7.68;;;2.88;;
3321;SDS011;1673;51.388;7.086;2023-07-28T06:29:55;7.65;;;2.85;;
3321;SDS011;1673;51.388;7.086;2023-07-28T06:32:27;5.83;;;2.83;;
3321;SDS011;1673;51.388;7.086;2023-07-28T06:34:58;8.80;;;3.17;;
3321;SDS011;1673;51.388;7.086;2023-07-28T06:37:28;9.63;;;3.47;;
3321;SDS011;1673;51.388;7.086;2023-07-28T06:39:58;7.88;;;3.20;;
3321;SDS011;1673;51.388;7.086;2023-07-28T06:42:28;7.28;;;3.20;;
3321;SDS011;1673;51.388;7.086;2023-07-28T06:45:01;8.77;;;2.90;;
3321;SDS011;1673;51.388;7.086;2023-07-28T06:47:33;7.97;;;3.80;;
3321;SDS011;1673;51.388;7.086;2023-07-28T06:50:04;9.95;;;4.30;;
3321;SDS011;1673;51.388;7.086;2023-07-28T06:52:35;10.70;;;3.92;;
3321;SDS011;1673;51.388;7.086;2023-07-28T06:55:06;10.82;;;3.80;;
3321;SDS011;1673;51.388;7.086;2023-07-28T06:57:36;8.38;;;3.65;;
3321;SDS011;1673;51.388;7.086;2023-07-28T07:00:07;12.50;;;3.90;;
3321;SDS011;1673;51.388;7.086;2023-07-28T07:02:41;7.45;;;3.60;;
3321;SDS011;1673;51.388;7.086;2023-07-28T07:05:12;9.18;;;3.88;;
3321;SDS011;1673;51.388;7.086;2023-07-28T07:07:43;9.68;;;3.97;;
3321;SDS011;1673;51.388;7.086;2023-07-28T07:10:13;9.37;;;4.30;;
3321;SDS011;1673;51.388;7.086;2023-07-28T07:12:43;9.98;;;4.85;;
3321;SDS011;1673;51.388;7.086;2023-07-28T07:15:13;17.27;;;5.20;;
3321;SDS011;1673;51.388;7.086;2023-07-28T07:17:46;10.77;;;4.82;;
3321;SDS011;1673;51.388;7.086;2023-07-28T07:20:16;13.70;;;5.50;;
3321;SDS011;1673;51.388;7.086;2023-07-28T07:22:47;15.70;;;5.50;;
3321;SDS011;1673;51.388;7.086;2023-07-28T07:25:16;13.50;;;5.88;;
3321;SDS011;1673;51.388;7.086;2023-07-28T07:27:47;13.88;;;5.85;;
3321;SDS011;1673;51.388;7.086;2023-07-28T07:30:17;12.40;;;5.35;;
3321;SDS011;1673;51.388;7.086;2023-07-28T07:32:49;11.18;;;5.50;;
3321;SDS011;1673;51.388;7.086;2023-07-28T07:35:20;13.40;;;5.28;;
3321;SDS011;1673;51.388;7.086;2023-07-28T07:37:50;13.35;;;5.30;;
3321;SDS011;1673;51.388;7.086;2023-07-28T07:40:20;12.35;;;4.90;;
3321;SDS011;1673;51.388;7.086;2023-07-28T07:42:54;11.15;;;4.38;;
3321;SDS011;1673;51.388;7.086;2023-07-28T07:45:24;11.00;;;4.63;;
3321;SDS011;1673;51.388;7.086;2023-07-28T07:47:56;10.57;;;4.23;;
3321;SDS011;1673;51.388;7.086;2023-07-28T07:50:27;12.07;;;4.65;;
3321;SDS011;1673;51.388;7.086;2023-07-28T07:52:57;12.38;;;4.10;;
3321;SDS011;1673;51.388;7.086;2023-07-28T07:55:27;9.20;;;3.55;;
3321;SDS011;1673;51.388;7.086;2023-07-28T07:57:58;10.60;;;3.20;;
3321;SDS011;1673;51.388;7.086;2023-07-28T08:00:28;8.25;;;3.53;;
3321;SDS011;1673;51.388;7.086;2023-07-28T08:03:00;9.10;;;3.20;;
3321;SDS011;1673;51.388;7.086;2023-07-28T08:05:31;6.50;;;2.78;;
3321;SDS011;1673;51.388;7.086;2023-07-28T08:08:02;8.43;;;3.30;;
3321;SDS011;1673;51.388;7.086;2023-07-28T08:10:34;7.10;;;2.90;;
3321;SDS011;1673;51.388;7.086;2023-07-28T08:13:04;8.47;;;3.60;;
3321;SDS011;1673;51.388;7.086;2023-07-28T08:15:34;10.87;;;4.03;;
3321;SDS011;1673;51.388;7.086;2023-07-28T08:18:06;8.82;;;4.18;;
3321;SDS011;1673;51.388;7.086;2023-07-28T08:20:37;8.10;;;3.88;;
3321;SDS011;1673;51.388;7.086;2023-07-28T08:23:07;9.25;;;4.20;;
3321;SDS011;1673;51.388;7.086;2023-07-28T08:25:38;8.30;;;4.00;;
3321;SDS011;1673;51.388;7.086;2023-07-28T08:28:07;8.68;;;4.10;;
3321;SDS011;1673;51.388;7.086;2023-07-28T08:30:38;6.25;;;3.15;;
3321;SDS011;1673;51.388;7.086;2023-07-28T08:33:10;7.53;;;3.10;;
3321;SDS011;1673;51.388;7.086;2023-07-28T08:35:40;6.32;;;3.03;;
3321;SDS011;1673;51.388;7.086;2023-07-28T08:38:10;6.97;;;2.75;;
3321;SDS011;1673;51.388;7.086;2023-07-28T08:40:41;5.50;;;2.40;;
3321;SDS011;1673;51.388;7.086;2023-07-28T08:43:12;5.68;;;2.00;;
3321;SDS011;1673;51.388;7.086;2023-07-28T08:45:42;4.60;;;2.00;;
3321;SDS011;1673;51.388;7.086;2023-07-28T08:48:15;5.05;;;1.90;;
3321;SDS011;1673;51.388;7.086;2023-07-28T08:50:45;5.47;;;1.73;;
3321;SDS011;1673;51.388;7.086;2023-07-28T08:53:16;5.38;;;1.70;;
3321;SDS011;1673;51.388;7.086;2023-07-28T08:55:46;4.40;;;1.70;;
3321;SDS011;1673;51.388;7.086;2023-07-28T08:58:17;5.40;;;1.70;;
3321;SDS011;1673;51.388;7.086;2023-07-28T09:00:48;4.50;;;1.20;;
3321;SDS011;1673;51.388;7.086;2023-07-28T09:03:22;3.97;;;1.40;;
3321;SDS011;1673;51.388;7.086;2023-07-28T09:05:58;5.50;;;1.90;;
3321;SDS011;1673;51.388;7.086;2023-07-28T09:08:30;6.13;;;2.10;;
3321;SDS011;1673;51.388;7.086;2023-07-28T09:11:01;7.30;;;2.13;;
3321;SDS011;1673;51.388;7.086;2023-07-28T09:13:35;4.88;;;1.95;;
3321;SDS011;1673;51.388;7.086;2023-07-28T09:16:11;4.47;;;1.80;;
3321;SDS011;1673;51.388;7.086;2023-07-28T09:18:48;6.37;;;2.20;;
3321;SDS011;1673;51.388;7.086;2023-07-28T09:21:19;6.07;;;2.75;;
3321;SDS011;1673;51.388;7.086;2023-07-28T09:23:50;4.88;;;2.20;;
3321;SDS011;1673;51.388;7.086;2023-07-28T09:26:20;5.82;;;2.40;;
3321;SDS011;1673;51.388;7.086;2023-07-28T09:28:51;6.82;;;2.80;;
3321;SDS011;1673;51.388;7.086;2023-07-28T09:31:28;6.50;;;3.03;;
3321;SDS011;1673;51.388;7.086;2023-07-28T09:34:02;9.20;;;3.80;;
3321;SDS011;1673;51.388;7.086;2023-07-28T09:36:32;6.75;;;3.33;;
3321;SDS011;1673;51.388;7.086;2023-07-28T09:39:02;6.78;;;3.35;;
3321;SDS011;1673;51.388;7.086;2023-07-28T09:41:34;7.28;;;3.25;;
3321;SDS011;1673;51.388;7.086;2023-07-28T09:44:05;6.93;;;3.47;;
3321;SDS011;1673;51.388;7.086;2023-07-28T09:46:35;7.50;;;3.75;;
3321;SDS011;1673;51.388;7.086;2023-07-28T09:49:21;8.63;;;3.53;;
3321;SDS011;1673;51.388;7.086;2023-07-28T09:51:57;10.30;;;3.30;;
3321;SDS011;1673;51.388;7.086;2023-07-28T09:54:29;6.30;;;3.13;;
3321;SDS011;1673;51.388;7.086;2023-07-28T09:57:00;7.22;;;3.53;;
3321;SDS011;1673;51.388;7.086;2023-07-28T09:59:32;9.18;;;3.85;;
3321;SDS011;1673;51.388;7.086;2023-07-28T10:02:06;7.30;;;3.58;;
3321;SDS011;1673;51.388;7.086;2023-07-28T10:04:40;9.60;;;4.20;;
3321;SDS011;1673;51.388;7.086;2023-07-28T10:07:10;7.10;;;3.60;;
3321;SDS011;1673;51.388;7.086;2023-07-28T10:09:41;7.82;;;3.63;;
3321;SDS011;1673;51.388;7.086;2023-07-28T10:12:17;8.43;;;3.70;;
3321;SDS011;1673;51.388;7.086;2023-07-28T10:14:48;8.98;;;4.50;;
3321;SDS011;1673;51.388;7.086;2023-07-28T10:17:33;9.90;;;4.05;;
3321;SDS011;1673;51.388;7.086;2023-07-28T10:20:10;10.13;;;3.92;;
3321;SDS011;1673;51.388;7.086;2023-07-28T10:23:06;9.38;;;4.20;;
3321;SDS011;1673;51.388;7.086;2023-07-28T10:25:37;8.40;;;4.60;;
3321;SDS011;1673;51.388;7.086;2023-07-28T10:28:07;9.20;;;4.10;;
3321;SDS011;1673;51.388;7.086;2023-07-28T10:30:55;7.50;;;4.50;;
3321;SDS011;1673;51.388;7.086;2023-07-28T10:33:27;11.00;;;4.18;;
3321;SDS011;1673;51.388;7.086;2023-07-28T10:36:12;7.50;;;4.20;;
3321;SDS011;1673;51.388;7.086;2023-07-28T10:38:44;8.07;;;3.90;;
3321;SDS011;1673;51.388;7.086;2023-07-28T10:41:15;10.32;;;3.97;;
3321;SDS011;1673;51.388;7.086;2023-07-28T10:43:46;7.68;;;3.70;;
3321;SDS011;1673;51.388;7.086;2023-07-28T10:46:17;6.50;;;3.38;;
3321;SDS011;1673;51.388;7.086;2023-07-28T10:48:48;6.47;;;3.63;;
3321;SDS011;1673;51.388;7.086;2023-07-28T10:51:23;6.53;;;3.60;;
3321;SDS011;1673;51.388;7.086;2023-07-28T10:53:58;7.53;;;3.50;;
3321;SDS011;1673;51.388;7.086;2023-07-28T10:56:29;7.10;;;3.30;;
3321;SDS011;1673;51.388;7.086;2023-07-28T10:59:00;7.60;;;3.10;;
3321;SDS011;1673;51.388;7.086;2023-07-28T11:01:33;5.30;;;2.90;;
3321;SDS011;1673;51.388;7.086;2023-07-28T11:04:09;7.80;;;3.50;;
3321;SDS011;1673;51.388;7.086;2023-07-28T11:06:43;5.57;;;3.03;;
3321;SDS011;1673;51.388;7.086;2023-07-28T11:09:15;7.38;;;2.85;;
3321;SDS011;1673;51.388;7.086;2023-07-28T11:11:46;5.30;;;2.80;;
3321;SDS011;1673;51.388;7.086;2023-07-28T11:14:17;5.43;;;2.67;;
3321;SDS011;1673;51.388;7.086;2023-07-28T11:16:47;6.30;;;3.10;;
3321;SDS011;1673;51.388;7.086;2023-07-28T11:19:17;9.07;;;3.10;;
3321;SDS011;1673;51.388;7.086;2023-07-28T11:21:55;5.80;;;2.80;;
3321;SDS011;1673;51.388;7.086;2023-07-28T11:24:25;7.10;;;2.60;;
3321;SDS011;1673;51.388;7.086;2023-07-28T11:26:57;4.68;;;2.47;;
3321;SDS011;1673;51.388;7.086;2023-07-28T11:29:29;6.78;;;2.60;;
3321;SDS011;1673;51.388;7.086;2023-07-28T11:31:59;5.30;;;2.60;;
3321;SDS011;1673;51.388;7.086;2023-07-28T11:34:33;6.53;;;2.80;;
3321;SDS011;1673;51.388;7.086;2023-07-28T11:37:08;5.93;;;2.22;;
3321;SDS011;1673;51.388;7.086;2023-07-28T11:39:39;9.07;;;2.80;;
3321;SDS011;1673;51.388;7.086;2023-07-28T11:42:09;5.80;;;2.50;;
3321;SDS011;1673;51.388;7.086;2023-07-28T11:44:39;6.40;;;2.70;;
3321;SDS011;1673;51.388;7.086;2023-07-28T11:47:09;7.53;;;2.80;;
3321;SDS011;1673;51.388;7.086;2023-07-28T11:49:47;5.28;;;2.20;;
3321;SDS011;1673;51.388;7.086;2023-07-28T11:52:20;4.28;;;2.10;;
3321;SDS011;1673;51.388;7.086;2023-07-28T11:54:51;4.10;;;1.90;;
3321;SDS011;1673;51.388;7.086;2023-07-28T11:57:21;6.50;;;1.80;;
3321;SDS011;1673;51.388;7.086;2023-07-28T11:59:51;5.40;;;2.00;;
3321;SDS011;1673;51.388;7.086;2023-07-28T12:02:24;4.00;;;1.70;;
3321;SDS011;1673;51.388;7.086;2023-07-28T12:04:55;4.07;;;1.70;;
3321;SDS011;1673;51.388;7.086;2023-07-28T12:07:31;4.07;;;1.77;;
3321;SDS011;1673;51.388;7.086;2023-07-28T12:10:02;4.60;;;1.98;;
3321;SDS011;1673;51.388;7.086;2023-07-28T12:12:39;5.18;;;1.60;;
3321;SDS011;1673;51.388;7.086;2023-07-28T12:15:20;7.15;;;1.60;;
3321;SDS011;1673;51.388;7.086;2023-07-28T12:18:01;4.60;;;2.00;;
3321;SDS011;1673;51.388;7.086;2023-07-28T12:20:36;3.90;;;1.60;;
3321;SDS011;1673;51.388;7.086;2023-07-28T12:23:10;6.57;;;1.80;;
3321;SDS011;1673;51.388;7.086;2023-07-28T12:25:43;4.82;;;1.90;;
3321;SDS011;1673;51.388;7.086;2023-07-28T12:28:13;3.83;;;1.40;;
3321;SDS011;1673;51.388;7.086;2023-07-28T12:30:46;4.60;;;1.90;;
3321;SDS011;1673;51.388;7.086;2023-07-28T12:33:19;3.97;;;1.40;;
3321;SDS011;1673;51.388;7.086;2023-07-28T12:35:49;4.90;;;1.50;;
3321;SDS011;1673;51.388;7.086;2023-07-28T12:38:23;4.03;;;1.60;;
3321;SDS011;1673;51.388;7.086;2023-07-28T12:40:56;3.97;;;1.58;;
3321;SDS011;1673;51.388;7.086;2023-07-28T12:43:29;5.07;;;1.60;;
3321;SDS011;1673;51.388;7.086;2023-07-28T12:46:02;5.00;;;1.80;;
3321;SDS011;1673;51.388;7.086;2023-07-28T12:48:35;7.30;;;2.30;;
3321;SDS011;1673;51.388;7.086;2023-07-28T12:51:09;4.57;;;1.90;;
3321;SDS011;1673;51.388;7.086;2023-07-28T12:53:42;4.50;;;1.80;;
3321;SDS011;1673;51.388;7.086;2023-07-28T12:56:12;3.65;;;1.50;;
3321;SDS011;1673;51.388;7.086;2023-07-28T12:59:02;5.50;;;1.70;;
3321;SDS011;1673;51.388;7.086;2023-07-28T13:01:36;4.60;;;1.80;;
3321;SDS011;1673;51.388;7.086;2023-07-28T13:04:08;4.57;;;1.50;;
3321;SDS011;1673;51.388;7.086;2023-07-28T13:06:38;7.30;;;1.60;;
3321;SDS011;1673;51.388;7.086;2023-07-28T13:09:11;3.60;;;1.23;;
3321;SDS011;1673;51.388;7.086;2023-07-28T13:11:44;3.33;;;1.30;;
3321;SDS011;1673;51.388;7.086;2023-07-28T13:14:17;3.70;;;1.40;;
3321;SDS011;1673;51.388;7.086;2023-07-28T13:16:47;4.72;;;1.20;;
3321;SDS011;1673;51.388;7.086;2023-07-28T13:19:17;3.20;;;1.30;;
3321;SDS011;1673;51.388;7.086;2023-07-28T13:21:47;4.65;;;1.70;;
3321;SDS011;1673;51.388;7.086;2023-07-28T13:24:20;5.57;;;1.42;;
3321;SDS011;1673;51.388;7.086;2023-07-28T13:26:50;3.50;;;1.10;;
3321;SDS011;1673;51.388;7.086;2023-07-28T13:29:27;4.93;;;1.30;;
3321;SDS011;1673;51.388;7.086;2023-07-28T13:32:13;4.65;;;1.40;;
3321;SDS011;1673;51.388;7.086;2023-07-28T13:34:45;5.38;;;2.20;;
3321;SDS011;1673;51.388;7.086;2023-07-28T13:37:15;5.53;;;1.60;;
3321;SDS011;1673;51.388;7.086;2023-07-28T13:39:49;5.20;;;1.50;;
3321;SDS011;1673;51.388;7.086;2023-07-28T13:42:19;4.15;;;1.30;;
3321;SDS011;1673;51.388;7.086;2023-07-28T13:44:49;4.40;;;1.27;;
3321;SDS011;1673;51.388;7.086;2023-07-28T13:47:22;4.43;;;1.50;;
3321;SDS011;1673;51.388;7.086;2023-07-28T13:49:52;3.85;;;1.40;;
3321;SDS011;1673;51.388;7.086;2023-07-28T13:52:22;4.30;;;1.50;;
3321;SDS011;1673;51.388;7.086;2023-07-28T13:54:55;4.30;;;1.70;;
3321;SDS011;1673;51.388;7.086;2023-07-28T13:57:28;4.03;;;1.40;;
3321;SDS011;1673;51.388;7.086;2023-07-28T13:59:58;5.20;;;1.63;;
3321;SDS011;1673;51.388;7.086;2023-07-28T14:02:30;4.10;;;1.50;;
3321;SDS011;1673;51.388;7.086;2023-07-28T14:05:00;5.22;;;1.33;;
3321;SDS011;1673;51.388;7.086;2023-07-28T14:07:30;4.60;;;1.50;;
3321;SDS011;1673;51.388;7.086;2023-07-28T14:10:04;3.92;;;1.20;;
3321;SDS011;1673;51.388;7.086;2023-07-28T14:12:35;5.05;;;1.42;;
3321;SDS011;1673;51.388;7.086;2023-07-28T14:15:06;4.85;;;1.50;;
3321;SDS011;1673;51.388;7.086;2023-07-28T14:17:37;3.83;;;1.67;;
3321;SDS011;1673;51.388;7.086;2023-07-28T14:20:08;3.80;;;1.63;;
3321;SDS011;1673;51.388;7.086;2023-07-28T14:22:39;5.85;;;1.48;;
3321;SDS011;1673;51.388;7.086;2023-07-28T14:25:11;4.38;;;1.60;;
3321;SDS011;1673;51.388;7.086;2023-07-28T14:27:42;5.90;;;1.60;;
3321;SDS011;1673;51.388;7.086;2023-07-28T14:30:12;4.70;;;1.40;;
3321;SDS011;1673;51.388;7.086;2023-07-28T14:32:42;4.15;;;1.40;;
3321;SDS011;1673;51.388;7.086;2023-07-28T14:35:12;3.50;;;1.10;;
3321;SDS011;1673;51.388;7.086;2023-07-28T14:37:42;3.30;;;1.00;;
3321;SDS011;1673;51.388;7.086;2023-07-28T14:40:14;3.40;;;1.00;;
3321;SDS011;1673;51.388;7.086;2023-07-28T14:42:44;5.30;;;1.40;;
3321;SDS011;1673;51.388;7.086;2023-07-28T14:45:14;3.67;;;1.00;;
3321;SDS011;1673;51.388;7.086;2023-07-28T14:47:44;3.10;;;1.00;;
3321;SDS011;1673;51.388;7.086;2023-07-28T14:50:15;3.50;;;1.20;;
3321;SDS011;1673;51.388;7.086;2023-07-28T14:52:45;3.65;;;1.20;;
3321;SDS011;1673;51.388;7.086;2023-07-28T14:55:18;3.25;;;1.00;;
3321;SDS011;1673;51.388;7.086;2023-07-28T14:57:48;3.47;;;1.20;;
3321;SDS011;1673;51.388;7.086;2023-07-28T15:00:18;3.00;;;1.20;;
3321;SDS011;1673;51.388;7.086;2023-07-28T15:02:47;3.22;;;1.20;;
3321;SDS011;1673;51.388;7.086;2023-07-28T15:05:18;3.90;;;1.20;;
3321;SDS011;1673;51.388;7.086;2023-07-28T15:07:48;5.15;;;1.30;;
3321;SDS011;1673;51.388;7.086;2023-07-28T15:10:21;4.00;;;1.20;;
3321;SDS011;1673;51.388;7.086;2023-07-28T15:12:51;3.20;;;1.20;;
3321;SDS011;1673;51.388;7.086;2023-07-28T15:15:22;3.65;;;1.17;;
3321;SDS011;1673;51.388;7.086;2023-07-28T15:17:56;5.60;;;1.40;;
3321;SDS011;1673;51.388;7.086;2023-07-28T15:20:26;3.22;;;1.15;;
3321;SDS011;1673;51.388;7.086;2023-07-28T15:22:56;3.75;;;1.42;;
3321;SDS011;1673;51.388;7.086;2023-07-28T15:25:29;5.30;;;1.60;;
3321;SDS011;1673;51.388;7.086;2023-07-28T15:27:59;3.40;;;1.40;;
3321;SDS011;1673;51.388;7.086;2023-07-28T15:30:29;3.72;;;1.45;;
3321;SDS011;1673;51.388;7.086;2023-07-28T15:33:00;3.50;;;1.27;;
3321;SDS011;1673;51.388;7.086;2023-07-28T15:35:30;3.80;;;1.50;;
3321;SDS011;1673;51.388;7.086;2023-07-28T15:38:01;4.75;;;1.73;;
3321;SDS011;1673;51.388;7.086;2023-07-28T15:40:34;3.40;;;1.25;;
3321;SDS011;1673;51.388;7.086;2023-07-28T15:43:06;4.10;;;1.40;;
3321;SDS011;1673;51.388;7.086;2023-07-28T15:45:36;4.00;;;1.60;;